This is the latest recevied weather packets stored in our database for station/object WO5CID. If no packets are shown the sender has not sent any weather packets the latest 10 day(s).
| Time | Temp. | Humidity | Pressure | Rain* | Wind** | Luminosity | Snow |
|---|---|---|---|---|---|---|---|
| 1778260775 | 31.11° C | 65% | 1013.7 hPa | 0 mm | - | 261 W/m² | - |
| 1778260471 | 31.67° C | 61% | 1014 hPa | 0 mm | - | 914 W/m² | - |
| 1778260168 | 31.67° C | 62% | 1014 hPa | 0 mm | - | 1009 W/m² | - |
| 1778259865 | 30.56° C | 64% | 1014.1 hPa | 0 mm | - | 964 W/m² | - |
| 1778259562 | 30.56° C | 66% | 1014.1 hPa | 0 mm | - | 574 W/m² | - |
| 1778259260 | 30° C | 66% | 1014.3 hPa | 0 mm | - | 959 W/m² | - |
| 1778258955 | 29.44° C | 67% | 1014.3 hPa | 0 mm | - | 988 W/m² | - |
| 1778258653 | 28.89° C | 73% | 1014.5 hPa | 0 mm | - | 920 W/m² | - |
| 1778258350 | 28.89° C | 70% | 1014.7 hPa | 0 mm | - | 449 W/m² | - |
| 1778258048 | 28.89° C | 70% | 1014.7 hPa | 0 mm | - | 390 W/m² | - |
| 1778257743 | 28.89° C | 75% | 1014.6 hPa | 0 mm | - | 736 W/m² | - |
| 1778257441 | 28.33° C | 80% | 1014.9 hPa | 0 mm | - | 703 W/m² | - |
| 1778257137 | 27.22° C | 84% | 1014.6 hPa | 1.27 mm | - | 446 W/m² | - |
| 1778256835 | 26.67° C | 86% | 1014.8 hPa | 1.27 mm | - | 407 W/m² | - |
| 1778256532 | 26.67° C | 85% | 1015 hPa | 0 mm | - | 129 W/m² | - |
| 1778256231 | 27.22° C | 81% | 1015.1 hPa | 0 mm | - | 93 W/m² | - |
| 1778255926 | 27.78° C | 79% | 1015 hPa | 0 mm | - | 133 W/m² | - |
| 1778255624 | 27.78° C | 77% | 1015.2 hPa | 0 mm | - | 76 W/m² | - |
| 1778255321 | 27.78° C | 76% | 1015.3 hPa | 0 mm | - | 149 W/m² | - |
| 1778255018 | 27.78° C | 76% | 1015.2 hPa | 0 mm | - | 143 W/m² | - |
| 1778254714 | 28.33° C | 73% | 1015.2 hPa | 0 mm | - | 84 W/m² | - |
| 1778254412 | 28.33° C | 71% | 1015.2 hPa | 0 mm | - | 43 W/m² | - |
| 1778254108 | 28.89° C | 69% | 1015.2 hPa | 0 mm | - | 92 W/m² | - |
| 1778253804 | 28.89° C | 69% | 1015.2 hPa | 0 mm | - | 63 W/m² | - |
| 1778253501 | 28.89° C | 67% | 1015.3 hPa | 0 mm | - | 105 W/m² | - |
* Rain latest hour (hover to see other rain measurements)
** Current wind speed in m/s (hover to see current wind gust speed)